Time;durP1;ratioP1;P1;durP2;ratioP2;P2;SDS_P1;SDS_P2;PMS_P1;PMS_P2;Temp;Humidity;BMP_temperature;BMP_pressure;BME280_temperature;BME280_humidity;BME280_pressure;Samples;Min_cycle;Max_cycle;Signal;HPM_P1;HPM_P2
2021/06/23 01:12:45;;;;;;;;;;;;;;;;;;;;;
2021/06/23 01:37:25;;;;;;;20.33;16.13;;;;;;;17.54;72.30;99065.41;128570;1096;61712;-94
2021/06/23 01:40:29;;;;;;;;;;;;;;;;;;;;;
2021/06/23 03:33:37;;;;;;;;;;;;;;;;;;;;;
2021/06/23 03:49:01;;;;;;;;;;;;;;;;;;;;;
2021/06/23 04:04:28;;;;;;;21.33;13.73;;;;;;;17.97;72.86;99133.20;128679;1096;61973;-91
2021/06/23 04:07:57;;;;;;;25.63;15.17;;;;;;;17.88;72.53;99134.98;128651;1095;61936;-94
2021/06/23 04:10:54;;;;;;;;;;;;;;;;;;;;;
2021/06/23 04:20:05;;;;;;;20.30;11.37;;;;;;;18.10;72.48;99156.11;128543;1096;63204;-88
2021/06/23 04:29:13;;;;;;;21.33;13.13;;;;;;;18.47;72.53;99168.57;128543;1096;61782;-93
2021/06/23 04:32:12;;;;;;;;;;;;;;;;;;;;;
2021/06/23 04:35:07;;;;;;;21.10;13.47;;;;;;;18.37;72.17;99173.21;128625;1097;62117;-94
2021/06/23 04:37:58;;;;;;;24.77;13.87;;;;;;;18.36;72.55;99185.04;128599;1095;61898;-95
2021/06/23 04:41:07;;;;;;;21.80;12.23;;;;;;;18.37;72.12;99200.25;128565;1095;62672;-90
2021/06/23 04:44:36;;;;;;;;;;;;;;;;;;;;;
2021/06/23 06:41:53;;;;;;;;;;;;;;;;;;;;;
2021/06/23 07:51:02;;;;;;;;;;;;;;;;;;;;;
2021/06/23 08:45:08;;;;;;;;;;;;;;;;;;;;;
2021/06/23 09:43:55;;;;;;;11.05;6.00;;;;;;;19.94;69.75;99334.59;128509;1098;62468;31
2021/06/23 10:53:18;;;;;;;;;;;;;;;;;;;;;
2021/06/23 11:10:26;;;;;;;11.20;5.50;;;;;;;24.78;66.43;99323.32;127358;1100;62191;-92
2021/06/23 11:13:25;;;;;;;;;;;;;;;;;;;;;
2021/06/23 11:17:39;;;;;;;12.50;5.33;;;;;;;25.04;65.68;99320.86;127729;1099;62961;-94
2021/06/23 11:58:35;;;;;;;7.63;5.33;;;;;;;24.44;64.48;99313.95;128459;1100;61933;-91
2021/06/23 12:02:22;;;;;;;14.63;7.47;;;;;;;24.69;64.05;99305.39;127234;1101;62422;-94
2021/06/23 12:09:03;;;;;;;10.83;4.90;;;;;;;24.35;63.65;99309.64;128332;1100;63191;-89
2021/06/23 12:29:09;;;;;;;;;;;;;;;;;;;;;
2021/06/23 12:44:30;;;;;;;5.63;4.00;;;;;;;24.97;62.45;99302.69;128550;1099;62117;-95
2021/06/23 12:50:46;;;;;;;6.90;4.70;;;;;;;24.69;62.15;99303.50;128059;1098;62317;-91
2021/06/23 12:53:24;;;;;;;9.27;4.33;;;;;;;24.72;62.55;99303.09;127267;1099;61953;-93
2021/06/23 12:57:01;;;;;;;7.47;4.03;;;;;;;24.99;62.38;99300.59;127229;1100;62155;-95
2021/06/23 13:00:08;;;;;;;;;;;;;;;;;;;;;
2021/06/23 13:06:26;;;;;;;;;;;;;;;;;;;;;
2021/06/23 13:09:35;;;;;;;12.10;3.70;;;;;;;24.69;62.21;99316.31;128568;1100;61790;-93
2021/06/23 13:12:32;;;;;;;5.70;3.77;;;;;;;24.90;61.95;99307.25;127374;1100;61915;-94
2021/06/23 13:15:39;;;;;;;11.27;3.93;;;;;;;24.93;62.02;99310.42;127653;1100;63604;-94
2021/06/23 13:18:45;;;;;;;5.63;3.57;;;;;;;24.99;62.27;99312.37;128353;1098;61985;-95
2021/06/23 13:22:12;;;;;;;;;;;;;;;;;;;;;
2021/06/23 13:25:46;;;;;;;8.27;4.23;;;;;;;25.05;62.29;99300.69;127282;1101;62441;-93
2021/06/23 13:28:57;;;;;;;;;;;;;;;;;;;;;
2021/06/23 13:32:05;;;;;;;7.67;4.13;;;;;;;25.13;61.77;99299.72;128125;1099;63176;-92
2021/06/23 13:34:55;;;;;;;9.27;3.83;;;;;;;25.13;62.05;99304.31;127632;1100;61853;-94
2021/06/23 13:37:54;;;;;;;8.77;3.73;;;;;;;25.28;61.64;99305.08;127641;1099;62006;-93
2021/06/23 13:43:54;;;;;;;6.37;3.63;;;;;;;25.36;61.37;99307.65;128462;1098;61735;-93
2021/06/23 13:46:48;;;;;;;5.83;3.80;;;;;;;25.42;61.13;99314.21;127541;1100;64690;-96
2021/06/23 13:49:43;;;;;;;;;;;;;;;;;;;;;
2021/06/23 13:53:08;;;;;;;5.20;3.20;;;;;;;25.13;61.74;99307.92;128390;1098;62033;-93
2021/06/23 13:56:21;;;;;;;;;;;;;;;;;;;;;
2021/06/23 13:59:20;;;;;;;9.27;3.70;;;;;;;25.11;61.37;99298.20;127793;1100;61875;-95
2021/06/23 14:02:25;;;;;;;9.17;4.13;;;;;;;25.02;61.06;99295.59;127721;1098;63115;-91
2021/06/23 14:05:07;;;;;;;9.83;3.77;;;;;;;25.01;60.73;99306.73;127771;1099;61861;-92
2021/06/23 14:08:24;;;;;;;8.00;4.37;;;;;;;24.78;60.85;99298.74;128286;1099;61881;-94
2021/06/23 14:11:36;;;;;;;;;;;;;;;;;;;;;
2021/06/23 14:14:33;;;;;;;5.97;3.30;;;;;;;24.60;60.66;99309.27;127619;1100;61886;-91
2021/06/23 14:17:41;;;;;;;9.13;4.23;;;;;;;24.52;60.56;99304.80;127762;1100;63420;-94
2021/06/23 14:24:00;;;;;;;;;;;;;;;;;;;;;
2021/06/23 14:27:05;;;;;;;;;;;;;;;;;;;;;
2021/06/23 14:33:25;;;;;;;11.30;3.93;;;;;;;24.23;60.62;99306.53;127954;1099;62113;-91
2021/06/23 14:36:32;;;;;;;13.87;4.10;;;;;;;24.42;60.48;99304.25;127248;1098;62290;-93
2021/06/23 14:39:26;;;;;;;11.67;4.53;;;;;;;24.35;60.13;99308.80;128276;1100;62570;-90
2021/06/23 14:42:15;;;;;;;7.43;3.50;;;;;;;24.25;60.67;99307.20;127350;1100;61811;-91
2021/06/23 14:45:07;;;;;;;;;;;;;;;;;;;;;
2021/06/23 14:48:32;;;;;;;8.63;4.27;;;;;;;24.40;60.55;99312.64;128406;1100;62583;-89
2021/06/23 14:51:21;;;;;;;14.27;4.23;;;;;;;24.43;60.47;99320.45;128462;1098;62281;-93
2021/06/23 14:53:59;;;;;;;6.20;4.07;;;;;;;24.30;59.49;99325.70;128526;1100;61342;-88
2021/06/23 14:56:48;;;;;;;11.33;3.67;;;;;;;24.04;59.89;99328.12;127637;1097;61788;-93
2021/06/23 15:00:18;;;;;;;8.00;3.70;;;;;;;23.97;60.58;99328.03;128561;1097;61793;-93
2021/06/23 15:03:13;;;;;;;5.67;3.67;;;;;;;23.92;59.88;99328.63;128131;1098;62883;-93
2021/06/23 15:06:17;;;;;;;8.77;3.87;;;;;;;23.78;60.30;99329.45;127551;1100;62353;-93
2021/06/23 15:09:38;;;;;;;3.63;3.17;;;;;;;23.58;60.30;99333.75;128474;1099;61905;-94
2021/06/23 15:12:49;;;;;;;6.63;4.43;;;;;;;23.27;60.22;99340.20;128436;1099;61793;-92
2021/06/23 15:18:36;;;;;;;7.10;4.43;;;;;;;23.10;60.46;99338.68;128381;1099;62175;-92
2021/06/23 15:21:54;;;;;;;;;;;;;;;;;;;;;
2021/06/23 15:24:44;;;;;;;;;;;;;;;;;;;;;
2021/06/23 15:27:42;;;;;;;8.97;4.10;;;;;;;22.79;60.70;99336.86;127739;1100;61866;-95
2021/06/23 15:31:09;;;;;;;14.50;4.87;;;;;;;22.78;60.41;99334.33;128412;1099;61844;-92
2021/06/23 15:34:13;;;;;;;9.07;4.37;;;;;;;22.78;60.40;99331.60;127772;1100;62935;-94
2021/06/23 15:37:15;;;;;;;;;;;;;;;;;;;;;
2021/06/23 15:40:45;;;;;;;;;;;;;;;;;;;;;
2021/06/23 15:43:37;;;;;;;10.83;4.63;;;;;;;22.61;60.18;99328.14;127715;1098;62172;-89
2021/06/23 15:46:35;;;;;;;10.57;4.33;;;;;;;22.57;60.41;99327.64;127972;1099;62163;-94
2021/06/23 15:49:55;;;;;;;7.43;4.50;;;;;;;22.60;60.74;99337.34;128357;1097;62905;-93
2021/06/23 15:52:50;;;;;;;9.13;4.60;;;;;;;22.57;60.35;99341.25;128404;1099;62015;-92
2021/06/23 15:55:59;;;;;;;7.00;4.15;;;;;;;22.56;60.40;99347.73;127608;1100;61976;-88
2021/06/23 15:59:00;;;;;;;;;;;;;;;;;;;;;
2021/06/23 16:02:00;;;;;;;7.90;3.83;;;;;;;22.58;60.71;99352.98;127629;1098;61934;-93
2021/06/23 16:04:55;;;;;;;6.85;4.13;;;;;;;22.60;60.39;99346.35;127579;1098;62034;-90
2021/06/23 16:07:50;;;;;;;9.27;4.40;;;;;;;22.57;60.70;99337.69;128318;1098;62020;-93
2021/06/23 16:10:53;;;;;;;7.80;4.00;;;;;;;22.56;60.38;99336.00;127683;1100;62308;-93
2021/06/23 16:13:47;;;;;;;9.37;5.10;;;;;;;22.42;60.30;99340.34;128196;1100;61889;-89
2021/06/23 16:16:45;;;;;;;11.43;4.73;;;;;;;22.31;60.68;99330.70;127495;1100;62283;-91
2021/06/23 16:19:43;;;;;;;8.73;4.83;;;;;;;22.23;60.65;99329.91;128244;1099;62074;-93
2021/06/23 16:22:35;;;;;;;11.60;4.70;;;;;;;22.21;60.58;99331.98;127653;1098;61946;-94
2021/06/23 16:25:59;;;;;;;10.17;5.33;;;;;;;22.15;60.83;99333.53;127560;1100;61933;-92
2021/06/23 16:28:50;;;;;;;10.10;5.97;;;;;;;22.11;60.93;99335.75;128306;1100;62355;-91
2021/06/23 16:31:54;;;;;;;12.17;5.27;;;;;;;22.07;61.00;99336.23;127403;1100;61825;-94
2021/06/23 16:35:05;;;;;;;8.83;5.23;;;;;;;22.10;61.30;99339.50;127759;1098;63144;-92
2021/06/23 16:38:02;;;;;;;8.17;5.67;;;;;;;22.12;61.02;99355.63;127219;1103;62055;-96
2021/06/23 16:40:47;;;;;;;11.67;6.63;;;;;;;22.06;60.90;99348.14;127866;1100;62039;-96
2021/06/23 16:43:43;;;;;;;10.30;6.00;;;;;;;22.00;61.02;99357.86;127609;1100;61782;-94
2021/06/23 16:47:06;;;;;;;9.97;5.33;;;;;;;22.01;61.22;99361.42;127588;1100;61949;-93
2021/06/23 16:50:08;;;;;;;16.83;5.50;;;;;;;22.04;61.28;99358.36;127682;1100;62894;-91
2021/06/23 16:53:17;;;;;;;;;;;;;;;;;;;;;
2021/06/23 16:56:21;;;;;;;;;;;;;;;;;;;;;
2021/06/23 16:59:19;;;;;;;12.73;5.57;;;;;;;21.95;61.30;99357.56;127489;1099;61800;-90
2021/06/23 17:02:22;;;;;;;;;;;;;;;;;;;;;
2021/06/23 17:05:31;;;;;;;9.70;5.80;;;;;;;21.93;61.17;99359.59;128513;1100;61848;-92
2021/06/23 17:11:44;;;;;;;12.67;4.80;;;;;;;21.92;61.31;99371.49;127738;1100;62041;-94
2021/06/23 17:14:43;;;;;;;9.07;4.60;;;;;;;21.94;61.30;99371.31;127441;1100;62186;-93
2021/06/23 17:17:39;;;;;;;11.47;4.77;;;;;;;21.87;61.23;99360.28;127431;1100;63034;-93
2021/06/23 17:20:53;;;;;;;13.63;5.10;;;;;;;21.83;61.32;99361.69;127940;1098;62032;-92
2021/06/23 17:24:24;;;;;;;11.67;5.10;;;;;;;21.79;61.30;99365.77;127660;1100;61902;-91
2021/06/23 17:27:33;;;;;;;9.00;4.87;;;;;;;21.74;61.27;99358.13;127554;1100;61873;-92
2021/06/23 17:33:54;;;;;;;11.33;5.73;;;;;;;21.69;61.32;99360.51;128411;1099;61859;-91
2021/06/23 17:39:49;;;;;;;23.10;6.80;;;;;;;21.62;61.56;99356.80;128487;1100;61997;-95
2021/06/23 17:43:07;;;;;;;17.33;5.43;;;;;;;21.68;61.70;99350.66;127686;1100;62003;-93
2021/06/23 17:46:31;;;;;;;12.13;4.93;;;;;;;21.73;61.66;99353.71;127298;1100;62280;-95
2021/06/23 17:49:47;;;;;;;;;;;;;;;;;;;;;
2021/06/23 17:55:57;;;;;;;12.87;5.30;;;;;;;21.63;61.58;99358.52;127293;1100;62481;-94
2021/06/23 17:59:07;;;;;;;10.67;4.93;;;;;;;21.59;61.78;99358.00;127527;1100;61897;-95
2021/06/23 18:02:30;;;;;;;;;;;;;;;;;;;;;
2021/06/23 18:05:14;;;;;;;;;;;;;;;21.46;61.71;99362.28;127723;1099;62059;-94
2021/06/23 18:11:08;;;;;;;8.70;4.73;;;;;;;21.31;61.95;99359.40;127689;1100;62140;-94
2021/06/23 18:14:27;;;;;;;12.40;5.10;;;;;;;21.37;62.14;99355.16;128418;1099;61875;-93
2021/06/23 18:20:34;;;;;;;10.63;5.20;;;;;;;21.47;61.88;99342.24;128548;1099;61823;-94
2021/06/23 18:30:14;;;;;;;;;;;;;;;;;;;;;
2021/06/23 18:33:19;;;;;;;;;;;;;;;;;;;;;
2021/06/23 18:36:15;;;;;;;;;;;;;;;;;;;;;
2021/06/23 18:39:13;;;;;;;57.77;40.63;;;;;;;21.25;62.57;99303.89;127411;1100;62309;-94
2021/06/23 18:42:15;;;;;;;;;;;;;;;;;;;;;
2021/06/23 18:45:09;;;;;;;;;;;;;;;;;;;;;
2021/06/23 18:48:55;;;;;;;30.00;16.13;;;;;;;21.24;62.85;99304.89;127534;1100;61913;-93
2021/06/23 18:52:43;;;;;;;25.40;10.53;;;;;;;21.29;62.79;99324.27;127258;1103;62009;-93
2021/06/23 18:59:38;;;;;;;;;;;;;;;;;;;;;
2021/06/23 19:03:53;;;;;;;16.83;6.77;;;;;;;21.25;62.80;99319.34;126833;1106;61850;-93
2021/06/23 19:10:42;;;;;;;;;;;;;;;;;;;;;
2021/06/23 19:14:13;;;;;;;;;;;;;;;;;;;;;
2021/06/23 19:21:25;;;;;;;;;;;;;;;;;;;;;
2021/06/23 19:28:43;;;;;;;;;;;;;;;;;;;;;
2021/06/23 19:43:06;;;;;;;;;;;;;;;;;;;;;
2021/06/23 20:32:55;;;;;;;;;;;;;;;;;;;;;
2021/06/23 21:08:32;;;;;;;;;;;;;;;;;;;;;
2021/06/23 21:33:25;;;;;;;;;;;;;;;;;;;;;
2021/06/23 21:42:37;;;;;;;;;;;;;;;;;;;;;
2021/06/23 22:50:15;;;;;;;;;;;;;;;;;;;;;
2021/06/23 23:05:53;;;;;;;;;;;;;;;;;;;;;
2021/06/23 23:56:04;;;;;;;;;;;;;;;;;;;;;
